createdAt,value
2023-09-03T00:07:30.610Z,14.64
2023-09-03T00:23:13.464Z,14.75
2023-09-03T00:38:56.009Z,14.86
2023-09-03T00:54:38.226Z,14.94
2023-09-03T01:10:20.558Z,14.99
2023-09-03T01:26:03.698Z,14.97
2023-09-03T01:41:46.138Z,14.86
2023-09-03T01:57:28.321Z,14.78
2023-09-03T02:13:10.393Z,14.69
2023-09-03T02:28:53.347Z,14.48
2023-09-03T02:44:35.606Z,14.3
2023-09-03T03:00:17.837Z,14.14
2023-09-03T03:16:00.784Z,13.98
2023-09-03T03:31:43.659Z,13.88
2023-09-03T03:47:26.263Z,13.89
2023-09-03T03:48:14.644Z,14.05
2023-09-03T04:03:56.864Z,14.11
2023-09-03T04:19:39.618Z,14.11
2023-09-03T04:35:21.722Z,14.13
2023-09-03T04:51:04.217Z,14.26
2023-09-03T05:06:47.218Z,14.5
2023-09-03T05:22:29.672Z,14.8
2023-09-03T05:38:12.423Z,15.21
2023-09-03T05:53:54.786Z,15.44
2023-09-03T06:09:36.892Z,15.69
2023-09-03T06:25:19.817Z,16.18
2023-09-03T06:41:02.644Z,16.69
2023-09-03T06:56:45.332Z,16.64
2023-09-03T07:12:27.834Z,17.18
2023-09-03T07:28:10.221Z,17.77
2023-09-03T07:43:52.681Z,17.96
2023-09-03T07:59:35.193Z,17.92
2023-09-03T08:15:17.585Z,18.49
2023-09-03T08:30:59.655Z,18.75
2023-09-03T08:46:42.532Z,19.61
2023-09-03T09:02:25.116Z,20.37
2023-09-03T09:18:07.818Z,21
2023-09-03T09:33:50.914Z,21.76
2023-09-03T09:49:33.323Z,22.42
2023-09-03T10:05:15.867Z,23.16
2023-09-03T10:20:57.934Z,22.42
2023-09-03T10:36:39.960Z,22.94
2023-09-03T10:52:22.159Z,24.5
2023-09-03T11:08:04.343Z,26.98
2023-09-03T11:23:46.648Z,26.4
2023-09-03T11:39:28.543Z,25.9
2023-09-03T11:55:10.702Z,24.68
2023-09-03T12:10:52.896Z,24.64
2023-09-03T12:26:34.935Z,24.74
2023-09-03T12:42:17.575Z,24.91
2023-09-03T12:58:00.381Z,25.35
2023-09-03T13:13:42.814Z,26.33
2023-09-03T13:29:25.525Z,26.12
2023-09-03T13:45:08.149Z,26.01
2023-09-03T14:00:51.022Z,25.56
2023-09-03T14:16:33.013Z,25.13
2023-09-03T14:32:15.520Z,24.13
2023-09-03T14:47:58.100Z,23.22
2023-09-03T15:03:40.323Z,22.72
2023-09-03T15:19:23.122Z,23.32
2023-09-03T15:35:05.135Z,23.85
2023-09-03T15:50:47.345Z,24.08
2023-09-03T16:06:29.517Z,23.26
2023-09-03T16:22:11.862Z,22.35
2023-09-03T16:37:54.564Z,21.83
2023-09-03T16:53:37.298Z,21.31
2023-09-03T17:09:20.072Z,20.91
2023-09-03T17:25:02.499Z,20.5
2023-09-03T17:40:45.362Z,20.08
2023-09-03T17:56:27.655Z,19.53
2023-09-03T18:12:09.931Z,19.1
2023-09-03T18:27:52.017Z,18.81
2023-09-03T18:43:34.404Z,18.57
2023-09-03T18:59:16.538Z,18.08
2023-09-03T19:14:59.043Z,17.62
2023-09-03T19:30:41.542Z,17.16
2023-09-03T19:46:23.727Z,16.64
2023-09-03T20:02:05.836Z,16.19
2023-09-03T20:49:13.933Z,15.19
2023-09-03T21:04:56.751Z,14.89
2023-09-03T21:20:38.878Z,14.61
2023-09-03T21:36:21.828Z,14.47
2023-09-03T21:52:04.510Z,14.29
2023-09-03T22:07:47.522Z,14.09
2023-09-03T22:23:30.444Z,13.87
2023-09-03T22:39:13.479Z,13.67
2023-09-03T22:54:56.223Z,13.5
2023-09-03T23:10:38.310Z,13.32
2023-09-03T23:26:21.043Z,13.19
2023-09-03T23:42:04.038Z,13.07
2023-09-03T23:57:46.123Z,12.95
